»·PEaware :: AAL1060 KSLC-KEGE

AAL1060 :: KSLC-KEGE

FLIGHT INFORMATION

Flight Status: Arrived
Operator:
American Airlines
More flights by this operator :: More flights under this callsign
Pilot: Ben L. (6391)
Aircraft: AIRBUS A320
(A320)
More flights by this aircraft type
Origin: KSLC Salt Lake City Intl
United States
Destination: KEGE Eagle Co Regl
United States
More flights between these airports :: More routes between these airports
Route: +NSIGN5 EKR RLG
File this flight plan on PilotEdge
Remarks:
Altitude:
(Current/Filed)
37,000ft
Speed:
(Current/Filed)
470kts
Departed: 04-Jan-18 09:31 PM
Arrived: 04-Jan-18 10:30 PM
Distance/Time
Traveled:
242nm/0:59
Distance/Time
To Go:
Arrived

Flight Plot

Page will automatically refresh every two minutes.

Flight plan parsing failed; only flown route is shown


Map Options




Map Legend


Flown Route
Filed Route
Departure Airport
Arrival Airport
Navaid (VOR, NDB)
Fix

Horizontal Profiles

Position Reports

Time Latitude Longitude Heading Altitude Ground
Speed
04-Jan-18 21:04 40.784890 -111.979005 0 4236ft 0kts
04-Jan-18 21:05 40.784890 -111.979005 0 4236ft 0kts
04-Jan-18 21:06 40.784890 -111.979005 0 4236ft 0kts
04-Jan-18 21:07 40.784890 -111.979005 0 4236ft 0kts
04-Jan-18 21:08 40.784890 -111.979005 0 4236ft 0kts
04-Jan-18 21:09 40.784890 -111.979005 0 4236ft 0kts
04-Jan-18 21:10 40.784890 -111.979005 0 4236ft 0kts
04-Jan-18 21:11 40.784890 -111.979005 0 4236ft 0kts
04-Jan-18 21:12 40.784890 -111.979005 0 4236ft 0kts
04-Jan-18 21:13 40.784890 -111.979005 0 4236ft 0kts
04-Jan-18 21:14 40.784890 -111.979005 0 4236ft 0kts
04-Jan-18 21:15 40.784474 -111.978820 341 4236ft 2kts
04-Jan-18 21:16 40.784120 -111.978681 40 4236ft 0kts
04-Jan-18 21:17 40.784099 -111.978711 55 4236ft 0kts
04-Jan-18 21:18 40.784184 -111.978193 87 4236ft 5kts
04-Jan-18 21:19 40.784198 -111.977760 87 4236ft 0kts
04-Jan-18 21:20 40.781330 -111.976059 177 4236ft 22kts
04-Jan-18 21:21 40.776187 -111.974989 175 4236ft 12kts
04-Jan-18 21:22 40.774760 -111.974797 159 4236ft 0kts
04-Jan-18 21:23 40.774754 -111.974794 159 4236ft 0kts
04-Jan-18 21:24 40.774646 -111.973755 49 4236ft 9kts
04-Jan-18 21:25 40.775611 -111.973245 354 4236ft 6kts
04-Jan-18 21:26 40.779450 -111.973703 356 4236ft 24kts
04-Jan-18 21:27 40.785872 -111.973459 101 4236ft 19kts
04-Jan-18 21:28 40.781659 -111.971958 174 4236ft 18kts
04-Jan-18 21:29 40.779114 -111.971248 168 4236ft 0kts
04-Jan-18 21:30 40.778978 -111.971213 167 4236ft 0kts
04-Jan-18 21:31 40.778978 -111.971213 167 4236ft 0kts
04-Jan-18 21:32 40.778978 -111.971213 167 4236ft 0kts
04-Jan-18 21:33 40.778109 -111.970385 95 4236ft 4kts
04-Jan-18 21:34 40.776125 -111.968255 165 4236ft 18kts
04-Jan-18 21:35 40.774409 -111.971324 288 4236ft 21kts
04-Jan-18 21:36 40.775709 -111.973286 355 4236ft 0kts
04-Jan-18 21:37 40.778594 -111.973506 351 4236ft 81kts
04-Jan-18 21:38 40.821219 -111.981083 350 6213ft 194kts
04-Jan-18 21:39 40.887276 -111.987803 6 8745ft 279kts
04-Jan-18 21:40 40.962319 -111.991572 355 12236ft 281kts
04-Jan-18 21:41 41.028132 -111.949104 77 14393ft 311kts
04-Jan-18 21:42 40.994850 -111.850258 134 16712ft 323kts
04-Jan-18 21:43 40.933713 -111.757284 133 18970ft 348kts
04-Jan-18 21:44 40.868957 -111.659264 133 21296ft 362kts
04-Jan-18 21:45 40.823788 -111.539912 106 23249ft 384kts
04-Jan-18 21:46 40.792950 -111.398020 106 24355ft 421kts
04-Jan-18 21:47 40.760022 -111.252320 107 25559ft 441kts
04-Jan-18 21:48 40.725072 -111.098435 107 27019ft 451kts
04-Jan-18 21:49 40.688904 -110.940470 107 28375ft 459kts
04-Jan-18 21:50 40.651720 -110.779377 106 29594ft 468kts
04-Jan-18 21:51 40.612841 -110.611996 106 30374ft 487kts
04-Jan-18 21:52 40.572905 -110.441612 106 31399ft 496kts
04-Jan-18 21:53 40.537492 -110.290352 105 32176ft 503kts
04-Jan-18 21:54 40.503871 -110.112658 103 32966ft 510kts
04-Jan-18 21:55 40.469430 -109.931155 103 33612ft 518kts
04-Jan-18 21:56 40.434229 -109.747269 102 34239ft 522kts
04-Jan-18 21:57 40.398911 -109.564356 102 35001ft 520kts
04-Jan-18 21:58 40.363445 -109.382545 103 36063ft 510kts
04-Jan-18 21:59 40.329999 -109.212491 103 37386ft 491kts
04-Jan-18 22:00 40.296364 -109.043193 103 37398ft 489kts
04-Jan-18 22:01 40.262046 -108.871598 103 37399ft 489kts
04-Jan-18 22:02 40.227538 -108.700509 103 37399ft 489kts
04-Jan-18 22:03 40.192659 -108.528959 103 37295ft 490kts
04-Jan-18 22:04 40.157774 -108.358717 101 36116ft 481kts
04-Jan-18 22:05 40.127087 -108.209859 104 35072ft 486kts
04-Jan-18 22:06 40.093540 -108.050790 103 33354ft 489kts
04-Jan-18 22:07 40.065650 -107.882995 90 31854ft 463kts
04-Jan-18 22:08 40.059371 -107.718492 89 30190ft 447kts
04-Jan-18 22:09 40.053008 -107.559634 89 28546ft 432kts
04-Jan-18 22:10 40.045663 -107.407346 88 26933ft 416kts
04-Jan-18 22:11 40.039865 -107.263207 90 25272ft 402kts
04-Jan-18 22:12 40.043639 -107.124424 59 24396ft 386kts
04-Jan-18 22:13 40.120230 -107.038262 30 24390ft 364kts
04-Jan-18 22:14 40.203530 -106.962827 30 24392ft 366kts
04-Jan-18 22:15 40.286662 -106.887470 30 24393ft 365kts
04-Jan-18 22:16 40.370053 -106.811952 29 24393ft 365kts
04-Jan-18 22:17 40.444487 -106.723061 65 24372ft 386kts
04-Jan-18 22:18 40.416101 -106.596098 146 22704ft 392kts
04-Jan-18 22:19 40.317963 -106.553985 167 21269ft 354kts
04-Jan-18 22:20 40.230128 -106.522761 167 20033ft 308kts
04-Jan-18 22:21 40.150190 -106.494481 167 18219ft 294kts
04-Jan-18 22:22 40.075714 -106.468180 164 16702ft 266kts
04-Jan-18 22:23 40.004635 -106.445014 180 14713ft 261kts
04-Jan-18 22:24 39.937369 -106.470076 197 13806ft 235kts
04-Jan-18 22:25 39.882822 -106.493025 196 13784ft 203kts
04-Jan-18 22:26 39.833404 -106.513401 195 13773ft 165kts
04-Jan-18 22:27 39.789879 -106.531136 198 13683ft 164kts
04-Jan-18 22:28 39.746955 -106.549929 197 12898ft 166kts
04-Jan-18 22:29 39.704010 -106.569183 216 12885ft 163kts
04-Jan-18 22:30 39.691501 -106.613492 256 12217ft 160kts
04-Jan-18 22:31 39.682149 -106.664564 256 11577ft 157kts
04-Jan-18 22:32 39.672075 -106.719205 256 9830ft 155kts
04-Jan-18 22:33 39.661565 -106.771025 250 8554ft 151kts
04-Jan-18 22:34 39.652726 -106.823806 264 7832ft 150kts
04-Jan-18 22:35 39.647100 -106.876539 260 6967ft 146kts
04-Jan-18 22:36 39.642240 -106.920257 264 6549ft 33kts
04-Jan-18 22:37 39.641650 -106.922857 53 6549ft 2kts

Navigation Log

Ident Type
Flight plan parsing failed, navigation log unavailable